Kingshill, Virgin Islands
Current Conditions -  °F | °C
As of 8:53 AM on Wednesday 22 Oct 2014 (Local Time) from TISX Reporting Station
Few Clouds Few Clouds  
Wind Chill: 30°   Ceiling: Unl
Heat Index: 34°   Visibility: 10mi
Dew Point: 23°   Wind: 14mph
Humidity: 65%   Direction: 100°E
Pressure: 30"   Gusts: NA
Location:  17.72°N, 64.78°W
Report Text: TISX 221253Z 10012KT 10SM FEW025 30/23 A3000 RMK AO2 SLP158 T03000228
Loading
Personal Weather Stations






























Interactive Weather Map New forecast layout! Learn more

10-Day Weather Forecast

Advertisements
Track Severe Weather on mobile